M S San Francisco — WZC3886 — position and weather

sailwx.info

Track history (hours):
 
Tides and Currents Weather Stations Pressure Air Temp Water Temp Dewpoint Dewpoint Depression Visibility Wind Speed Wind Dir Waves Ship Positions

M S San Francisco

Owner: GOLDEN GATE BRIDGE HWY & TRANSP DISTRICT, LARKSPUR, CA. More information available from US FCC via Universal Licensing System and Coast Guard Vessel Documentation Center.

Last reported at 2017-Aug-19 22:30 UTC. Time now 2017-Aug-19 22:31 UTC.
Position N 37°48' W 122°24'.

Length 58 m.

Type: Passenger vessel. MMSI: 366963980.

Date/timePositionNaut miles runAvg speedWind from/ knotsBaromVisibWave heightAir tempDewpointWater temp
2017-Aug-19 22:30N 37°48' W 122°24'2 3.6
2017-Aug-19 22:01N 37°49' W 122°24'4 7.6
2017-Aug-19 21:30N 37°51' W 122°29'2 3.9
2017-Aug-19 21:00N 37°52' W 122°27'510.7
2017-Aug-19 20:30N 37°57' W 122°31'0 0.0
2017-Aug-19 04:24N 37°57' W 122°31'4 9.3
2017-Aug-19 04:01N 37°55' W 122°27'2 4.9
2017-Aug-19 03:30N 37°52' W 122°27'510.6
2017-Aug-19 03:00N 37°48' W 122°24'510.9
2017-Aug-19 02:30N 37°52' W 122°27'510.8
2017-Aug-19 02:00N 37°48' W 122°23'5 9.6
2017-Aug-19 01:30N 37°52' W 122°27'2 4.0
2017-Aug-19 01:00N 37°50' W 122°25'3 6.0
2017-Aug-19 00:31N 37°48' W 122°23'611.1
2017-Aug-19 00:00N 37°52' W 122°27'510.9
2017-Aug-18 23:30N 37°48' W 122°23'0 0.8
2017-Aug-18 23:00N 37°48' W 122°23'0 0.6
2017-Aug-18 22:30N 37°48' W 122°24'0 0.0
2017-Aug-18 22:00N 37°48' W 122°24'0 0.0
2017-Aug-18 21:30N 37°48' W 122°24'0 0.0
2017-Aug-18 21:00N 37°48' W 122°24'0 0.0
2017-Aug-18 20:30N 37°48' W 122°24'0 0.0
2017-Aug-18 20:00N 37°48' W 122°24'0 0.0
2017-Aug-18 19:30N 37°48' W 122°24'0 0.0
2017-Aug-18 19:00N 37°48' W 122°24'0 0.0
2017-Aug-18 18:30N 37°48' W 122°24'0 0.0
2017-Aug-18 18:00N 37°48' W 122°24'0 0.0
2017-Aug-18 17:30N 37°48' W 122°24'0 0.6
2017-Aug-18 17:00N 37°48' W 122°23'2 4.7
2017-Aug-18 16:30N 37°50' W 122°24'3 6.1
2017-Aug-18 16:01N 37°52' W 122°27'510.0
2017-Aug-18 15:31N 37°48' W 122°24'510.7
2017-Aug-18 15:01N 37°52' W 122°27'4 3.6
2017-Aug-18 14:01N 37°50' W 122°24'4 7.2
2017-Aug-18 13:31N 37°52' W 122°27'510.6
2017-Aug-18 13:00N 37°48' W 122°24'510.9
2017-Aug-18 12:30N 37°52' W 122°27'3 6.5
2017-Aug-18 12:00N 37°56' W 122°28'2 0.3
2017-Aug-18 04:57N 37°57' W 122°31'0 0.1
2017-Aug-18 04:28N 37°57' W 122°31'3 6.7
2017-Aug-18 04:00N 37°55' W 122°27'3 6.1
2017-Aug-18 03:30N 37°52' W 122°27'510.4
2017-Aug-18 03:01N 37°48' W 122°23'511.0
2017-Aug-18 02:31N 37°52' W 122°27'511.0
2017-Aug-18 02:01N 37°48' W 122°23'5 9.7
2017-Aug-18 01:30N 37°52' W 122°27'2 4.8
2017-Aug-18 01:01N 37°50' W 122°25'3 5.2
2017-Aug-18 00:30N 37°48' W 122°23'611.1
2017-Aug-18 00:01N 37°52' W 122°27'510.9
2017-Aug-17 23:31N 37°48' W 122°23'0 0.6
2017-Aug-17 23:00N 37°48' W 122°23'0 0.6
2017-Aug-17 22:30N 37°48' W 122°24'0 0.0
2017-Aug-17 22:00N 37°48' W 122°24'0 0.0
2017-Aug-17 21:30N 37°48' W 122°24'0 0.0
2017-Aug-17 21:00N 37°48' W 122°24'0 0.0
2017-Aug-17 20:30N 37°48' W 122°24'0 0.0
2017-Aug-17 20:00N 37°48' W 122°24'0 0.0
2017-Aug-17 19:30N 37°48' W 122°24'0 0.0
2017-Aug-17 19:00N 37°48' W 122°24'0 0.0
2017-Aug-17 18:30N 37°48' W 122°24'0 0.0
2017-Aug-17 18:00N 37°48' W 122°24'0 0.0
2017-Aug-17 17:30N 37°48' W 122°24'0 0.5
2017-Aug-17 17:01N 37°48' W 122°23'1 2.8
2017-Aug-17 16:30N 37°49' W 122°24'4 8.8
2017-Aug-17 16:00N 37°52' W 122°27'510.9
2017-Aug-17 15:30N 37°48' W 122°24'510.9
2017-Aug-17 15:00N 37°52' W 122°27'4 7.8
2017-Aug-17 14:31N 37°50' W 122°24'1 1.2
2017-Aug-17 14:00N 37°49' W 122°24'4 7.3
2017-Aug-17 13:31N 37°52' W 122°27'510.6
2017-Aug-17 13:00N 37°48' W 122°24'511.0
2017-Aug-17 12:31N 37°52' W 122°27'3 5.6
2017-Aug-17 12:01N 37°55' W 122°27'3 6.0
2017-Aug-17 11:30N 37°57' W 122°31'0 0.0
2017-Aug-17 04:32N 37°57' W 122°31'0 0.0
2017-Aug-17 04:30N 37°57' W 122°31'3 6.7
2017-Aug-17 04:01N 37°55' W 122°27'3 5.2
2017-Aug-17 03:31N 37°52' W 122°27'510.9
2017-Aug-17 03:00N 37°48' W 122°24'511.0
2017-Aug-17 02:31N 37°52' W 122°27'510.9
2017-Aug-17 02:01N 37°48' W 122°23'5 9.4
2017-Aug-17 01:31N 37°52' W 122°27'2 3.1
2017-Aug-17 01:01N 37°51' W 122°25'3 6.6
2017-Aug-17 00:30N 37°48' W 122°23'611.0
2017-Aug-17 00:00N 37°52' W 122°27'511.2
2017-Aug-16 23:31N 37°48' W 122°23'0 0.9
2017-Aug-16 23:01N 37°48' W 122°23'917.3
2017-Aug-16 22:31N 37°56' W 122°28'2 3.8
2017-Aug-16 21:57N 37°57' W 122°31'0 0.0
2017-Aug-16 21:30N 37°57' W 122°31'0 0.0
2017-Aug-16 21:00N 37°57' W 122°31'0 0.0
2017-Aug-16 20:27N 37°57' W 122°31'0 0.0
2017-Aug-16 20:01N 37°57' W 122°31'0 0.0
2017-Aug-16 19:27N 37°57' W 122°31'0 0.0
2017-Aug-16 18:40N 37°57' W 122°31'0 0.0
2017-Aug-16 18:29N 37°57' W 122°31'0 0.1
2017-Aug-16 18:01N 37°57' W 122°30'1 2.2
2017-Aug-16 17:30N 37°56' W 122°29'714.6
2017-Aug-16 17:01N 37°50' W 122°24'1 2.9
2017-Aug-16 16:31N 37°49' W 122°24'4 8.4
2017-Aug-16 16:00N 37°52' W 122°27'510.7
2017-Aug-16 15:30N 37°48' W 122°24'510.7
2017-Aug-16 15:00N 37°52' W 122°27'4 7.2
2017-Aug-16 14:30N 37°50' W 122°24'0 0.8
2017-Aug-16 14:00N 37°50' W 122°24'4 7.1
2017-Aug-16 13:31N 37°52' W 122°27'510.7
2017-Aug-16 13:00N 37°48' W 122°24'511.0
2017-Aug-16 12:31N 37°52' W 122°27'3 5.7
2017-Aug-16 12:00N 37°55' W 122°27'3 0.4
2017-Aug-16 04:23N 37°57' W 122°31'3 8.7
2017-Aug-16 04:00N 37°55' W 122°27'3 5.5
2017-Aug-16 03:30N 37°52' W 122°27'510.3
2017-Aug-16 03:00N 37°48' W 122°23'510.8
2017-Aug-16 02:31N 37°52' W 122°27'510.8
2017-Aug-16 02:00N 37°48' W 122°23'510.6
2017-Aug-16 01:30N 37°52' W 122°27'2 4.6
2017-Aug-16 01:01N 37°51' W 122°25'3 6.3
2017-Aug-16 00:31N 37°48' W 122°23'611.0
2017-Aug-16 00:01N 37°52' W 122°27'510.8
2017-Aug-15 23:30N 37°48' W 122°23'1 1.1
2017-Aug-15 23:00N 37°48' W 122°23'0 0.6
2017-Aug-15 22:30N 37°48' W 122°24'0 0.0
2017-Aug-15 22:00N 37°48' W 122°24'0 0.0
2017-Aug-15 21:30N 37°48' W 122°24'0 0.0
2017-Aug-15 21:00N 37°48' W 122°24'0 0.0
2017-Aug-15 20:30N 37°48' W 122°24'0 0.0
2017-Aug-15 20:00N 37°48' W 122°24'0 0.0
2017-Aug-15 19:30N 37°48' W 122°24'0 0.0
2017-Aug-15 19:00N 37°48' W 122°24'0 0.0
2017-Aug-15 18:30N 37°48' W 122°24'0 0.0
2017-Aug-15 18:00N 37°48' W 122°24'0 0.0
2017-Aug-15 17:30N 37°48' W 122°24'0 0.6
2017-Aug-15 17:00N 37°48' W 122°23'2 3.4
2017-Aug-15 16:30N 37°49' W 122°24'4 8.3
2017-Aug-15 16:01N 37°52' W 122°27'510.8
2017-Aug-15 15:30N 37°48' W 122°24'510.9
2017-Aug-15 15:00N 37°52' W 122°27'4 7.1
2017-Aug-15 14:31N 37°50' W 122°24'1 1.0
2017-Aug-15 14:00N 37°50' W 122°24'3 7.0
2017-Aug-15 13:31N 37°52' W 122°27'510.8
2017-Aug-15 13:00N 37°48' W 122°24'510.9
2017-Aug-15 12:30N 37°52' W 122°27'3 6.7
2017-Aug-15 12:00N 37°56' W 122°28'2 4.3
2017-Aug-15 11:30N 37°57' W 122°31'0 0.0
2017-Aug-15 04:20N 37°57' W 122°31'2 7.3
2017-Aug-15 04:00N 37°56' W 122°28'3 6.6
2017-Aug-15 03:31N 37°52' W 122°27'510.9
2017-Aug-15 03:00N 37°48' W 122°24'511.0
2017-Aug-15 02:31N 37°52' W 122°27'510.9
2017-Aug-15 02:01N 37°48' W 122°23'5 9.5
2017-Aug-15 01:31N 37°52' W 122°27'2 3.8
2017-Aug-15 01:00N 37°51' W 122°25'3 6.0
2017-Aug-15 00:30N 37°48' W 122°23'611.0
2017-Aug-15 00:00N 37°52' W 122°27'510.8
2017-Aug-14 23:30N 37°48' W 122°23'0 0.3
2017-Aug-14 23:00N 37°48' W 122°23'816.4
2017-Aug-14 22:31N 37°55' W 122°27'3 0.9
2017-Aug-14 19:12N 37°57' W 122°30'2 9.4
2017-Aug-14 19:00N 37°56' W 122°28'3 5.1
2017-Aug-14 18:30N 37°54' W 122°26'1 1.7
2017-Aug-14 18:00N 37°55' W 122°26'1 1.7
2017-Aug-14 17:30N 37°54' W 122°26'3 5.7
2017-Aug-14 17:01N 37°52' W 122°24'3 6.0
2017-Aug-14 16:30N 37°49' W 122°23'5 9.3
2017-Aug-14 16:00N 37°52' W 122°27'510.8
2017-Aug-14 15:30N 37°48' W 122°24'510.9
2017-Aug-14 15:01N 37°52' W 122°27'4 7.3
2017-Aug-14 14:30N 37°50' W 122°24'0 0.7
2017-Aug-14 14:00N 37°50' W 122°24'4 7.1
2017-Aug-14 13:30N 37°52' W 122°27'510.9
2017-Aug-14 13:00N 37°48' W 122°24'510.9
2017-Aug-14 12:30N 37°52' W 122°27'2 3.9
2017-Aug-14 12:00N 37°54' W 122°27'4 7.3
2017-Aug-14 11:30N 37°57' W 122°30'0 0.0
2017-Aug-14 07:36N 37°57' W 122°31'0 0.5
2017-Aug-14 07:30N 37°57' W 122°30'611.6
2017-Aug-14 07:01N 37°53' W 122°25'612.4
2017-Aug-14 06:30N 37°47' W 122°23'0 0.0
2017-Aug-14 06:00N 37°47' W 122°23'0 0.0
2017-Aug-14 05:30N 37°47' W 122°23'0 0.0
2017-Aug-14 05:00N 37°47' W 122°23'0 0.0
2017-Aug-14 04:31N 37°47' W 122°23'0 0.0
2017-Aug-14 04:00N 37°47' W 122°23'0 0.0
2017-Aug-14 03:30N 37°47' W 122°23'0 0.0
2017-Aug-14 03:00N 37°47' W 122°23'0 0.0
2017-Aug-14 02:30N 37°47' W 122°23'0 0.0
2017-Aug-14 02:00N 37°47' W 122°23'0 0.0
2017-Aug-14 01:30N 37°47' W 122°23'612.8
2017-Aug-14 01:00N 37°53' W 122°25'611.0
2017-Aug-14 00:30N 37°57' W 122°31'0 0.0
2017-Aug-14 00:00N 37°57' W 122°31'0 0.0
2017-Aug-13 23:30N 37°57' W 122°31'0 0.0
2017-Aug-13 04:24N 37°57' W 122°31'3 7.7
2017-Aug-13 04:00N 37°55' W 122°27'815.9
2017-Aug-13 03:30N 37°48' W 122°24'3 5.3
2017-Aug-13 03:00N 37°50' W 122°25'3 5.9
2017-Aug-13 02:30N 37°51' W 122°29'510.0
2017-Aug-13 02:00N 37°49' W 122°23'1 2.3
2017-Aug-13 01:30N 37°48' W 122°24'510.7
2017-Aug-13 01:00N 37°51' W 122°29'0 0.5
2017-Aug-13 00:30N 37°51' W 122°28'510.4
2017-Aug-13 00:00N 37°48' W 122°24'4 7.3
2017-Aug-12 23:31N 37°50' W 122°27'2 3.2
2017-Aug-12 23:00N 37°51' W 122°28'510.6
2017-Aug-12 22:31N 37°48' W 122°23'1 1.7
2017-Aug-12 22:01N 37°49' W 122°24'5 9.6
2017-Aug-12 21:30N 37°51' W 122°29'2 3.8
2017-Aug-12 21:01N 37°52' W 122°27'510.9
2017-Aug-12 20:30N 37°57' W 122°31'0 0.0
2017-Aug-12 19:59N 37°57' W 122°31'0 0.0
2017-Aug-12 19:31N 37°57' W 122°31'0 0.0
2017-Aug-12 19:00N 37°57' W 122°31'0 0.0
2017-Aug-12 18:30N 37°57' W 122°31'0 0.0
2017-Aug-12 18:00N 37°57' W 122°31'0 0.0
2017-Aug-12 17:30N 37°57' W 122°31'0 0.0
2017-Aug-12 17:01N 37°57' W 122°31'0 0.0
2017-Aug-12 16:30N 37°57' W 122°31'0 0.2
2017-Aug-12 16:00N 37°57' W 122°30'713.0
2017-Aug-12 15:31N 37°52' W 122°24'713.5
2017-Aug-12 15:01N 37°48' W 122°18'1 1.3
2017-Aug-12 14:30N 37°47' W 122°17'0 0.0
2017-Aug-12 14:01N 37°47' W 122°17'0 0.0
2017-Aug-11 17:18N 37°47' W 122°17'0 0.0
2017-Aug-11 17:00N 37°47' W 122°17'0 0.2
2017-Aug-11 16:30N 37°48' W 122°17'3 5.1
2017-Aug-11 16:01N 37°48' W 122°20'4 7.8
2017-Aug-11 15:30N 37°51' W 122°23'5 9.7
2017-Aug-11 15:00N 37°55' W 122°27'3 3.0
2017-Aug-11 14:00N 37°57' W 122°31'0 0.0
2017-Aug-10 12:32N 37°57' W 122°31'0 0.0
2017-Aug-10 12:30N 37°57' W 122°31'2 4.3
2017-Aug-10 12:00N 37°56' W 122°28'2 4.4
2017-Aug-10 11:30N 37°57' W 122°31'0 0.0
2017-Aug-10 04:16N 37°57' W 122°31'2 7.0
2017-Aug-10 04:00N 37°56' W 122°28'3 7.2
2017-Aug-10 03:30N 37°52' W 122°27'510.8
2017-Aug-10 03:00N 37°48' W 122°24'511.0
2017-Aug-10 02:30N 37°52' W 122°27'510.7
2017-Aug-10 02:01N 37°48' W 122°23'4 7.6
2017-Aug-10 01:31N 37°51' W 122°26'1 2.0
2017-Aug-10 01:00N 37°51' W 122°25'3 6.2
2017-Aug-10 00:31N 37°48' W 122°23'511.0
2017-Aug-10 00:00N 37°52' W 122°27'510.5
2017-Aug-09 23:30N 37°48' W 122°23'1 1.6
2017-Aug-09 23:00N 37°48' W 122°23'0 0.6
2017-Aug-09 22:30N 37°48' W 122°24'  
Track history (hours):
 
Tides and Currents Weather Stations Pressure Air Temp Water Temp Dewpoint Dewpoint Depression Visibility Wind Speed Wind Dir Waves Ship Positions

M S San Francisco

Owner: GOLDEN GATE BRIDGE HWY & TRANSP DISTRICT, LARKSPUR, CA. More information available from US FCC via Universal Licensing System and Coast Guard Vessel Documentation Center.

Last reported at 2017-Aug-19 22:30 UTC. Time now 2017-Aug-19 22:31 UTC.
Position N 37°48' W 122°24'.

Length 58 m.

Type: Passenger vessel. MMSI: 366963980.

Date/timePositionNaut miles runAvg speedWind from/ knotsBaromVisibWave heightAir tempDewpointWater temp
2017-Aug-19 22:30N 37°48' W 122°24'2 3.6
2017-Aug-19 22:01N 37°49' W 122°24'4 7.6
2017-Aug-19 21:30N 37°51' W 122°29'2 3.9
2017-Aug-19 21:00N 37°52' W 122°27'510.7
2017-Aug-19 20:30N 37°57' W 122°31'0 0.0
2017-Aug-19 04:24N 37°57' W 122°31'4 9.3
2017-Aug-19 04:01N 37°55' W 122°27'2 4.9
2017-Aug-19 03:30N 37°52' W 122°27'510.6
2017-Aug-19 03:00N 37°48' W 122°24'510.9
2017-Aug-19 02:30N 37°52' W 122°27'510.8
2017-Aug-19 02:00N 37°48' W 122°23'5 9.6
2017-Aug-19 01:30N 37°52' W 122°27'2 4.0
2017-Aug-19 01:00N 37°50' W 122°25'3 6.0
2017-Aug-19 00:31N 37°48' W 122°23'611.1
2017-Aug-19 00:00N 37°52' W 122°27'510.9
2017-Aug-18 23:30N 37°48' W 122°23'0 0.8
2017-Aug-18 23:00N 37°48' W 122°23'0 0.6
2017-Aug-18 22:30N 37°48' W 122°24'0 0.0
2017-Aug-18 22:00N 37°48' W 122°24'0 0.0
2017-Aug-18 21:30N 37°48' W 122°24'0 0.0
2017-Aug-18 21:00N 37°48' W 122°24'0 0.0
2017-Aug-18 20:30N 37°48' W 122°24'0 0.0
2017-Aug-18 20:00N 37°48' W 122°24'0 0.0
2017-Aug-18 19:30N 37°48' W 122°24'0 0.0
2017-Aug-18 19:00N 37°48' W 122°24'0 0.0
2017-Aug-18 18:30N 37°48' W 122°24'0 0.0
2017-Aug-18 18:00N 37°48' W 122°24'0 0.0
2017-Aug-18 17:30N 37°48' W 122°24'0 0.6
2017-Aug-18 17:00N 37°48' W 122°23'2 4.7
2017-Aug-18 16:30N 37°50' W 122°24'3 6.1
2017-Aug-18 16:01N 37°52' W 122°27'510.0
2017-Aug-18 15:31N 37°48' W 122°24'510.7
2017-Aug-18 15:01N 37°52' W 122°27'4 3.6
2017-Aug-18 14:01N 37°50' W 122°24'4 7.2
2017-Aug-18 13:31N 37°52' W 122°27'510.6
2017-Aug-18 13:00N 37°48' W 122°24'510.9
2017-Aug-18 12:30N 37°52' W 122°27'3 6.5
2017-Aug-18 12:00N 37°56' W 122°28'2 0.3
2017-Aug-18 04:57N 37°57' W 122°31'0 0.1
2017-Aug-18 04:28N 37°57' W 122°31'3 6.7
2017-Aug-18 04:00N 37°55' W 122°27'3 6.1
2017-Aug-18 03:30N 37°52' W 122°27'510.4
2017-Aug-18 03:01N 37°48' W 122°23'511.0
2017-Aug-18 02:31N 37°52' W 122°27'511.0
2017-Aug-18 02:01N 37°48' W 122°23'5 9.7
2017-Aug-18 01:30N 37°52' W 122°27'2 4.8
2017-Aug-18 01:01N 37°50' W 122°25'3 5.2
2017-Aug-18 00:30N 37°48' W 122°23'611.1
2017-Aug-18 00:01N 37°52' W 122°27'510.9
2017-Aug-17 23:31N 37°48' W 122°23'0 0.6
2017-Aug-17 23:00N 37°48' W 122°23'0 0.6
2017-Aug-17 22:30N 37°48' W 122°24'0 0.0
2017-Aug-17 22:00N 37°48' W 122°24'0 0.0
2017-Aug-17 21:30N 37°48' W 122°24'0 0.0
2017-Aug-17 21:00N 37°48' W 122°24'0 0.0
2017-Aug-17 20:30N 37°48' W 122°24'0 0.0
2017-Aug-17 20:00N 37°48' W 122°24'0 0.0
2017-Aug-17 19:30N 37°48' W 122°24'0 0.0
2017-Aug-17 19:00N 37°48' W 122°24'0 0.0
2017-Aug-17 18:30N 37°48' W 122°24'0 0.0
2017-Aug-17 18:00N 37°48' W 122°24'0 0.0
2017-Aug-17 17:30N 37°48' W 122°24'0 0.5
2017-Aug-17 17:01N 37°48' W 122°23'1 2.8
2017-Aug-17 16:30N 37°49' W 122°24'4 8.8
2017-Aug-17 16:00N 37°52' W 122°27'510.9
2017-Aug-17 15:30N 37°48' W 122°24'510.9
2017-Aug-17 15:00N 37°52' W 122°27'4 7.8
2017-Aug-17 14:31N 37°50' W 122°24'1 1.2
2017-Aug-17 14:00N 37°49' W 122°24'4 7.3
2017-Aug-17 13:31N 37°52' W 122°27'510.6
2017-Aug-17 13:00N 37°48' W 122°24'511.0
2017-Aug-17 12:31N 37°52' W 122°27'3 5.6
2017-Aug-17 12:01N 37°55' W 122°27'3 6.0
2017-Aug-17 11:30N 37°57' W 122°31'0 0.0
2017-Aug-17 04:32N 37°57' W 122°31'0 0.0
2017-Aug-17 04:30N 37°57' W 122°31'3 6.7
2017-Aug-17 04:01N 37°55' W 122°27'3 5.2
2017-Aug-17 03:31N 37°52' W 122°27'510.9
2017-Aug-17 03:00N 37°48' W 122°24'511.0
2017-Aug-17 02:31N 37°52' W 122°27'510.9
2017-Aug-17 02:01N 37°48' W 122°23'5 9.4
2017-Aug-17 01:31N 37°52' W 122°27'2 3.1
2017-Aug-17 01:01N 37°51' W 122°25'3 6.6
2017-Aug-17 00:30N 37°48' W 122°23'611.0
2017-Aug-17 00:00N 37°52' W 122°27'511.2
2017-Aug-16 23:31N 37°48' W 122°23'0 0.9
2017-Aug-16 23:01N 37°48' W 122°23'917.3
2017-Aug-16 22:31N 37°56' W 122°28'2 3.8
2017-Aug-16 21:57N 37°57' W 122°31'0 0.0
2017-Aug-16 21:30N 37°57' W 122°31'0 0.0
2017-Aug-16 21:00N 37°57' W 122°31'0 0.0
2017-Aug-16 20:27N 37°57' W 122°31'0 0.0
2017-Aug-16 20:01N 37°57' W 122°31'0 0.0
2017-Aug-16 19:27N 37°57' W 122°31'0 0.0
2017-Aug-16 18:40N 37°57' W 122°31'0 0.0
2017-Aug-16 18:29N 37°57' W 122°31'0 0.1
2017-Aug-16 18:01N 37°57' W 122°30'1 2.2
2017-Aug-16 17:30N 37°56' W 122°29'714.6
2017-Aug-16 17:01N 37°50' W 122°24'1 2.9
2017-Aug-16 16:31N 37°49' W 122°24'4 8.4
2017-Aug-16 16:00N 37°52' W 122°27'510.7
2017-Aug-16 15:30N 37°48' W 122°24'510.7
2017-Aug-16 15:00N 37°52' W 122°27'4 7.2
2017-Aug-16 14:30N 37°50' W 122°24'0 0.8
2017-Aug-16 14:00N 37°50' W 122°24'4 7.1
2017-Aug-16 13:31N 37°52' W 122°27'510.7
2017-Aug-16 13:00N 37°48' W 122°24'511.0
2017-Aug-16 12:31N 37°52' W 122°27'3 5.7
2017-Aug-16 12:00N 37°55' W 122°27'3 0.4
2017-Aug-16 04:23N 37°57' W 122°31'3 8.7
2017-Aug-16 04:00N 37°55' W 122°27'3 5.5
2017-Aug-16 03:30N 37°52' W 122°27'510.3
2017-Aug-16 03:00N 37°48' W 122°23'510.8
2017-Aug-16 02:31N 37°52' W 122°27'510.8
2017-Aug-16 02:00N 37°48' W 122°23'510.6
2017-Aug-16 01:30N 37°52' W 122°27'2 4.6
2017-Aug-16 01:01N 37°51' W 122°25'3 6.3
2017-Aug-16 00:31N 37°48' W 122°23'611.0
2017-Aug-16 00:01N 37°52' W 122°27'510.8
2017-Aug-15 23:30N 37°48' W 122°23'1 1.1
2017-Aug-15 23:00N 37°48' W 122°23'0 0.6
2017-Aug-15 22:30N 37°48' W 122°24'0 0.0
2017-Aug-15 22:00N 37°48' W 122°24'0 0.0
2017-Aug-15 21:30N 37°48' W 122°24'0 0.0
2017-Aug-15 21:00N 37°48' W 122°24'0 0.0
2017-Aug-15 20:30N 37°48' W 122°24'0 0.0
2017-Aug-15 20:00N 37°48' W 122°24'0 0.0
2017-Aug-15 19:30N 37°48' W 122°24'0 0.0
2017-Aug-15 19:00N 37°48' W 122°24'0 0.0
2017-Aug-15 18:30N 37°48' W 122°24'0 0.0
2017-Aug-15 18:00N 37°48' W 122°24'0 0.0
2017-Aug-15 17:30N 37°48' W 122°24'0 0.6
2017-Aug-15 17:00N 37°48' W 122°23'2 3.4
2017-Aug-15 16:30N 37°49' W 122°24'4 8.3
2017-Aug-15 16:01N 37°52' W 122°27'510.8
2017-Aug-15 15:30N 37°48' W 122°24'510.9
2017-Aug-15 15:00N 37°52' W 122°27'4 7.1
2017-Aug-15 14:31N 37°50' W 122°24'1 1.0
2017-Aug-15 14:00N 37°50' W 122°24'3 7.0
2017-Aug-15 13:31N 37°52' W 122°27'510.8
2017-Aug-15 13:00N 37°48' W 122°24'510.9
2017-Aug-15 12:30N 37°52' W 122°27'3 6.7
2017-Aug-15 12:00N 37°56' W 122°28'2 4.3
2017-Aug-15 11:30N 37°57' W 122°31'0 0.0
2017-Aug-15 04:20N 37°57' W 122°31'2 7.3
2017-Aug-15 04:00N 37°56' W 122°28'3 6.6
2017-Aug-15 03:31N 37°52' W 122°27'510.9
2017-Aug-15 03:00N 37°48' W 122°24'511.0
2017-Aug-15 02:31N 37°52' W 122°27'510.9
2017-Aug-15 02:01N 37°48' W 122°23'5 9.5
2017-Aug-15 01:31N 37°52' W 122°27'2 3.8
2017-Aug-15 01:00N 37°51' W 122°25'3 6.0
2017-Aug-15 00:30N 37°48' W 122°23'611.0
2017-Aug-15 00:00N 37°52' W 122°27'510.8
2017-Aug-14 23:30N 37°48' W 122°23'0 0.3
2017-Aug-14 23:00N 37°48' W 122°23'816.4
2017-Aug-14 22:31N 37°55' W 122°27'3 0.9
2017-Aug-14 19:12N 37°57' W 122°30'2 9.4
2017-Aug-14 19:00N 37°56' W 122°28'3 5.1
2017-Aug-14 18:30N 37°54' W 122°26'1 1.7
2017-Aug-14 18:00N 37°55' W 122°26'1 1.7
2017-Aug-14 17:30N 37°54' W 122°26'3 5.7
2017-Aug-14 17:01N 37°52' W 122°24'3 6.0
2017-Aug-14 16:30N 37°49' W 122°23'5 9.3
2017-Aug-14 16:00N 37°52' W 122°27'510.8
2017-Aug-14 15:30N 37°48' W 122°24'510.9
2017-Aug-14 15:01N 37°52' W 122°27'4 7.3
2017-Aug-14 14:30N 37°50' W 122°24'0 0.7
2017-Aug-14 14:00N 37°50' W 122°24'4 7.1
2017-Aug-14 13:30N 37°52' W 122°27'510.9
2017-Aug-14 13:00N 37°48' W 122°24'510.9
2017-Aug-14 12:30N 37°52' W 122°27'2 3.9
2017-Aug-14 12:00N 37°54' W 122°27'4 7.3
2017-Aug-14 11:30N 37°57' W 122°30'0 0.0
2017-Aug-14 07:36N 37°57' W 122°31'0 0.5
2017-Aug-14 07:30N 37°57' W 122°30'611.6
2017-Aug-14 07:01N 37°53' W 122°25'612.4
2017-Aug-14 06:30N 37°47' W 122°23'0 0.0
2017-Aug-14 06:00N 37°47' W 122°23'0 0.0
2017-Aug-14 05:30N 37°47' W 122°23'0 0.0
2017-Aug-14 05:00N 37°47' W 122°23'0 0.0
2017-Aug-14 04:31N 37°47' W 122°23'0 0.0
2017-Aug-14 04:00N 37°47' W 122°23'0 0.0
2017-Aug-14 03:30N 37°47' W 122°23'0 0.0
2017-Aug-14 03:00N 37°47' W 122°23'0 0.0
2017-Aug-14 02:30N 37°47' W 122°23'0 0.0
2017-Aug-14 02:00N 37°47' W 122°23'0 0.0
2017-Aug-14 01:30N 37°47' W 122°23'612.8
2017-Aug-14 01:00N 37°53' W 122°25'611.0
2017-Aug-14 00:30N 37°57' W 122°31'0 0.0
2017-Aug-14 00:00N 37°57' W 122°31'0 0.0
2017-Aug-13 23:30N 37°57' W 122°31'0 0.0
2017-Aug-13 04:24N 37°57' W 122°31'3 7.7
2017-Aug-13 04:00N 37°55' W 122°27'815.9
2017-Aug-13 03:30N 37°48' W 122°24'3 5.3
2017-Aug-13 03:00N 37°50' W 122°25'3 5.9
2017-Aug-13 02:30N 37°51' W 122°29'510.0
2017-Aug-13 02:00N 37°49' W 122°23'1 2.3
2017-Aug-13 01:30N 37°48' W 122°24'510.7
2017-Aug-13 01:00N 37°51' W 122°29'0 0.5
2017-Aug-13 00:30N 37°51' W 122°28'510.4
2017-Aug-13 00:00N 37°48' W 122°24'4 7.3
2017-Aug-12 23:31N 37°50' W 122°27'2 3.2
2017-Aug-12 23:00N 37°51' W 122°28'510.6
2017-Aug-12 22:31N 37°48' W 122°23'1 1.7
2017-Aug-12 22:01N 37°49' W 122°24'5 9.6
2017-Aug-12 21:30N 37°51' W 122°29'2 3.8
2017-Aug-12 21:01N 37°52' W 122°27'510.9
2017-Aug-12 20:30N 37°57' W 122°31'0 0.0
2017-Aug-12 19:59N 37°57' W 122°31'0 0.0
2017-Aug-12 19:31N 37°57' W 122°31'0 0.0
2017-Aug-12 19:00N 37°57' W 122°31'0 0.0
2017-Aug-12 18:30N 37°57' W 122°31'0 0.0
2017-Aug-12 18:00N 37°57' W 122°31'0 0.0
2017-Aug-12 17:30N 37°57' W 122°31'0 0.0
2017-Aug-12 17:01N 37°57' W 122°31'0 0.0
2017-Aug-12 16:30N 37°57' W 122°31'0 0.2
2017-Aug-12 16:00N 37°57' W 122°30'713.0
2017-Aug-12 15:31N 37°52' W 122°24'713.5
2017-Aug-12 15:01N 37°48' W 122°18'1 1.3
2017-Aug-12 14:30N 37°47' W 122°17'0 0.0
2017-Aug-12 14:01N 37°47' W 122°17'0 0.0
2017-Aug-11 17:18N 37°47' W 122°17'0 0.0
2017-Aug-11 17:00N 37°47' W 122°17'0 0.2
2017-Aug-11 16:30N 37°48' W 122°17'3 5.1
2017-Aug-11 16:01N 37°48' W 122°20'4 7.8
2017-Aug-11 15:30N 37°51' W 122°23'5 9.7
2017-Aug-11 15:00N 37°55' W 122°27'3 3.0
2017-Aug-11 14:00N 37°57' W 122°31'0 0.0
2017-Aug-10 12:32N 37°57' W 122°31'0 0.0
2017-Aug-10 12:30N 37°57' W 122°31'2 4.3
2017-Aug-10 12:00N 37°56' W 122°28'2 4.4
2017-Aug-10 11:30N 37°57' W 122°31'0 0.0
2017-Aug-10 04:16N 37°57' W 122°31'2 7.0
2017-Aug-10 04:00N 37°56' W 122°28'3 7.2
2017-Aug-10 03:30N 37°52' W 122°27'510.8
2017-Aug-10 03:00N 37°48' W 122°24'511.0
2017-Aug-10 02:30N 37°52' W 122°27'510.7
2017-Aug-10 02:01N 37°48' W 122°23'4 7.6
2017-Aug-10 01:31N 37°51' W 122°26'1 2.0
2017-Aug-10 01:00N 37°51' W 122°25'3 6.2
2017-Aug-10 00:31N 37°48' W 122°23'511.0
2017-Aug-10 00:00N 37°52' W 122°27'510.5
2017-Aug-09 23:30N 37°48' W 122°23'1 1.6
2017-Aug-09 23:00N 37°48' W 122°23'0 0.6
2017-Aug-09 22:30N 37°48' W 122°24'  

Dump ship's entire track history